Airport ID:KTME
Update Time (UTC):22/11/2019 12:40
Wind Speed (Knots):2
Wind Direction (Magnetic):170
Temperature (°C):20.1
Dew Point (°C):20.1
Humidity (%):100
Altimeter (inHg):29.96
Density Altitude (Feet):
Visibility (Miles):0.09
Clouds (Hundreds of feet):OVC001
Present Weather:FG
METAR:METAR KTME 221240Z AUTO 00000KT M1/4SM FG OVC001 20/20 A2996 RMK AO2

The data displayed is for advisory purposes only and is not to be used for flight planning or operations.

This page is not automatically refreshed. Reload the page to see current data.